sensor_id;sensor_type;location;lat;lon;timestamp;temperature;humidity
55151;DHT22;41041;43.162;20.538;2024-03-23T06:05:27;103.20;2227.20
55151;DHT22;41041;43.162;20.538;2024-03-23T06:07:53;102.90;2227.20
55151;DHT22;41041;43.162;20.538;2024-03-23T06:10:19;103.10;2227.20
55151;DHT22;41041;43.162;20.538;2024-03-23T06:12:48;103.30;2227.20
55151;DHT22;41041;43.162;20.538;2024-03-23T06:15:14;128.10;2252.80
55151;DHT22;41041;43.162;20.538;2024-03-23T06:17:40;103.20;2227.20
55151;DHT22;41041;43.162;20.538;2024-03-23T06:20:07;103.10;2227.20
55151;DHT22;41041;43.162;20.538;2024-03-23T06:22:33;103.10;2227.20
55151;DHT22;41041;43.162;20.538;2024-03-23T06:24:59;103.30;2227.20
55151;DHT22;41041;43.162;20.538;2024-03-23T07:53:39;205.00;2252.80
55151;DHT22;41041;43.162;20.538;2024-03-23T07:56:08;205.00;2252.80
55151;DHT22;41041;43.162;20.538;2024-03-23T07:58:36;205.00;2252.80
55151;DHT22;41041;43.162;20.538;2024-03-23T08:40:44;256.60;2252.80
55151;DHT22;41041;43.162;20.538;2024-03-23T08:43:10;256.50;2227.20
55151;DHT22;41041;43.162;20.538;2024-03-23T08:45:36;256.50;2176.00
55151;DHT22;41041;43.162;20.538;2024-03-23T08:48:02;256.90;2176.00
55151;DHT22;41041;43.162;20.538;2024-03-23T08:50:27;281.80;2176.00
55151;DHT22;41041;43.162;20.538;2024-03-23T08:52:53;281.70;2278.40
55151;DHT22;41041;43.162;20.538;2024-03-23T08:57:45;281.80;2099.20
55151;DHT22;41041;43.162;20.538;2024-03-23T09:00:11;281.80;2073.60
55151;DHT22;41041;43.162;20.538;2024-03-23T09:02:37;281.90;2073.60
55151;DHT22;41041;43.162;20.538;2024-03-23T09:05:03;282.00;2048.00
55151;DHT22;41041;43.162;20.538;2024-03-23T09:07:32;282.10;2073.60
55151;DHT22;41041;43.162;20.538;2024-03-23T09:13:20;282.40;2048.00
55151;DHT22;41041;43.162;20.538;2024-03-23T09:15:52;307.20;2048.00
55151;DHT22;41041;43.162;20.538;2024-03-23T09:18:22;307.50;2048.00
55151;DHT22;41041;43.162;20.538;2024-03-23T09:20:48;307.40;2048.00
55151;DHT22;41041;43.162;20.538;2024-03-23T13:51:02;512.50;998.40
55151;DHT22;41041;43.162;20.538;2024-03-23T13:53:29;512.70;972.80
55151;DHT22;41041;43.162;20.538;2024-03-23T13:55:55;512.70;947.20
55151;DHT22;41041;43.162;20.538;2024-03-23T13:58:21;512.70;947.20
55151;DHT22;41041;43.162;20.538;2024-03-23T14:00:55;512.80;947.20
55151;DHT22;41041;43.162;20.538;2024-03-23T14:03:22;512.70;947.20
55151;DHT22;41041;43.162;20.538;2024-03-23T14:05:48;512.60;947.20
55151;DHT22;41041;43.162;20.538;2024-03-23T14:08:13;512.70;947.20
55151;DHT22;41041;43.162;20.538;2024-03-23T14:10:43;512.80;947.20
55151;DHT22;41041;43.162;20.538;2024-03-23T14:13:09;512.80;947.20
55151;DHT22;41041;43.162;20.538;2024-03-23T14:15:34;512.40;947.20
55151;DHT22;41041;43.162;20.538;2024-03-23T14:18:02;512.30;947.20
55151;DHT22;41041;43.162;20.538;2024-03-23T14:20:28;512.10;972.80
55151;DHT22;41041;43.162;20.538;2024-03-23T14:22:54;512.30;972.80
55151;DHT22;41041;43.162;20.538;2024-03-23T14:25:23;512.40;972.80
55151;DHT22;41041;43.162;20.538;2024-03-23T14:27:52;512.80;972.80
55151;DHT22;41041;43.162;20.538;2024-03-23T14:30:18;512.90;947.20
55151;DHT22;41041;43.162;20.538;2024-03-23T14:32:48;537.60;972.80
55151;DHT22;41041;43.162;20.538;2024-03-23T14:37:40;537.80;947.20
55151;DHT22;41041;43.162;20.538;2024-03-23T14:40:10;538.30;896.00
55151;DHT22;41041;43.162;20.538;2024-03-23T14:42:38;538.40;896.00
55151;DHT22;41041;43.162;20.538;2024-03-23T14:47:31;538.50;921.60
55151;DHT22;41041;43.162;20.538;2024-03-23T14:49:56;538.50;921.60
55151;DHT22;41041;43.162;20.538;2024-03-23T14:52:24;538.50;921.60
55151;DHT22;41041;43.162;20.538;2024-03-23T14:54:50;538.50;921.60
55151;DHT22;41041;43.162;20.538;2024-03-23T14:57:16;563.20;947.20
55151;DHT22;41041;43.162;20.538;2024-03-23T14:59:44;563.20;921.60
55151;DHT22;41041;43.162;20.538;2024-03-23T15:02:10;563.20;947.20
55151;DHT22;41041;43.162;20.538;2024-03-23T15:04:45;538.50;921.60
55151;DHT22;41041;43.162;20.538;2024-03-23T15:07:18;538.50;921.60
55151;DHT22;41041;43.162;20.538;2024-03-23T15:09:52;538.40;921.60
55151;DHT22;41041;43.162;20.538;2024-03-23T15:12:19;538.50;921.60
55151;DHT22;41041;43.162;20.538;2024-03-23T15:14:45;538.50;921.60
55151;DHT22;41041;43.162;20.538;2024-03-23T15:17:13;538.50;921.60
55151;DHT22;41041;43.162;20.538;2024-03-23T15:19:39;538.40;947.20
55151;DHT22;41041;43.162;20.538;2024-03-23T15:22:07;538.40;921.60
55151;DHT22;41041;43.162;20.538;2024-03-23T15:24:36;538.40;947.20
55151;DHT22;41041;43.162;20.538;2024-03-23T15:27:03;538.30;947.20
55151;DHT22;41041;43.162;20.538;2024-03-23T15:29:29;538.30;947.20
55151;DHT22;41041;43.162;20.538;2024-03-23T15:31:55;538.20;921.60
55151;DHT22;41041;43.162;20.538;2024-03-23T15:34:22;538.20;921.60
55151;DHT22;41041;43.162;20.538;2024-03-23T15:36:48;538.20;947.20
55151;DHT22;41041;43.162;20.538;2024-03-23T15:39:16;538.10;947.20
55151;DHT22;41041;43.162;20.538;2024-03-23T15:41:49;537.80;972.80
55151;DHT22;41041;43.162;20.538;2024-03-23T15:44:15;537.70;972.80
55151;DHT22;41041;43.162;20.538;2024-03-23T16:08:52;537.90;998.40
55151;DHT22;41041;43.162;20.538;2024-03-23T16:11:18;512.90;972.80
55151;DHT22;41041;43.162;20.538;2024-03-23T16:23:37;537.60;1024.00
55151;DHT22;41041;43.162;20.538;2024-03-23T16:26:03;512.50;998.40
55151;DHT22;41041;43.162;20.538;2024-03-23T16:28:36;512.10;1024.00
55151;DHT22;41041;43.162;20.538;2024-03-23T16:31:04;487.10;1024.00
55151;DHT22;41041;43.162;20.538;2024-03-23T16:33:31;486.90;1049.60
55151;DHT22;41041;43.162;20.538;2024-03-23T16:35:58;486.70;1049.60
55151;DHT22;41041;43.162;20.538;2024-03-23T16:38:26;486.60;1075.20
55151;DHT22;41041;43.162;20.538;2024-03-23T16:41:01;486.40;1075.20
55151;DHT22;41041;43.162;20.538;2024-03-23T16:43:29;461.70;1100.80
55151;DHT22;41041;43.162;20.538;2024-03-23T16:58:12;461.10;1126.40
55151;DHT22;41041;43.162;20.538;2024-03-23T17:00:38;460.90;1126.40
55151;DHT22;41041;43.162;20.538;2024-03-23T17:03:04;436.10;1152.00
55151;DHT22;41041;43.162;20.538;2024-03-23T17:05:38;435.90;1152.00
55151;DHT22;41041;43.162;20.538;2024-03-23T18:24:36;384.30;1408.00
55151;DHT22;41041;43.162;20.538;2024-03-23T18:42:36;384.30;1433.60
55151;DHT22;41041;43.162;20.538;2024-03-23T18:45:22;384.10;1459.20
55151;DHT22;41041;43.162;20.538;2024-03-23T18:47:49;384.00;1484.80
55151;DHT22;41041;43.162;20.538;2024-03-23T19:25:06;384.00;1561.60
55151;DHT22;41041;43.162;20.538;2024-03-23T19:27:40;359.20;1561.60
